Time;durP1;ratioP1;P1;durP2;ratioP2;P2;SDS_P1;SDS_P2;PMS_P1;PMS_P2;Temp;Humidity;BMP_temperature;BMP_pressure;BME280_temperature;BME280_humidity;BME280_pressure;Samples;Min_cycle;Max_cycle;Signal;HPM_P1;HPM_P2
2022/11/01 00:01:31;;;;;;;19.90;12.30;;;12.60;99.90;;;;;;5003932;28;20076;-83
2022/11/01 00:03:57;;;;;;;19.75;12.25;;;12.60;99.90;;;;;;4986358;28;20489;-82
2022/11/01 00:06:23;;;;;;;24.60;12.23;;;12.60;99.90;;;;;;4986608;28;20053;-83
2022/11/01 00:08:49;;;;;;;15.32;11.73;;;12.60;99.90;;;;;;4986925;28;20053;-83
2022/11/01 00:11:16;;;;;;;14.60;10.15;;;12.60;99.90;;;;;;4986901;28;20674;-82
2022/11/01 00:13:45;;;;;;;17.90;10.77;;;12.70;99.90;;;;;;5018529;28;20053;-82
2022/11/01 00:16:10;;;;;;;15.30;10.95;;;12.70;99.90;;;;;;5016508;28;20050;-84
2022/11/01 00:18:36;;;;;;;20.17;11.02;;;12.70;99.90;;;;;;4986230;28;20049;-83
2022/11/01 00:21:01;;;;;;;14.38;10.57;;;12.70;99.90;;;;;;4986470;28;20038;-82
2022/11/01 00:23:27;;;;;;;18.60;11.80;;;12.80;99.90;;;;;;4986491;28;20050;-84
2022/11/01 00:25:53;;;;;;;25.02;12.10;;;12.70;99.90;;;;;;4986024;28;20049;-83
2022/11/01 00:28:18;;;;;;;17.98;11.23;;;12.70;99.90;;;;;;4986921;28;20062;-83
2022/11/01 00:30:44;;;;;;;15.95;9.60;;;12.70;99.90;;;;;;4986251;28;20054;-82
2022/11/01 00:33:10;;;;;;;25.30;10.98;;;12.70;99.90;;;;;;4984987;28;20049;-83
2022/11/01 00:35:38;;;;;;;17.10;10.82;;;12.70;99.90;;;;;;4986322;28;20053;-83
2022/11/01 00:38:05;;;;;;;13.93;12.43;;;12.80;99.90;;;;;;4994188;28;20049;-83
2022/11/01 00:40:30;;;;;;;20.95;10.05;;;12.80;99.90;;;;;;5005739;28;20038;-83
2022/11/01 00:42:56;;;;;;;19.75;11.00;;;12.80;99.90;;;;;;5005419;28;20052;-83
2022/11/01 00:45:21;;;;;;;17.30;11.38;;;12.80;99.90;;;;;;5005678;28;20117;-82
2022/11/01 00:47:47;;;;;;;22.27;9.30;;;12.80;99.90;;;;;;5004699;28;20038;-84
2022/11/01 00:50:14;;;;;;;17.30;10.43;;;12.80;99.90;;;;;;5005102;28;20464;-83
2022/11/01 00:52:39;;;;;;;13.88;11.57;;;12.80;99.90;;;;;;5002068;28;20622;-82
2022/11/01 00:55:05;;;;;;;13.32;9.88;;;12.80;99.90;;;;;;4986747;28;20042;-83
2022/11/01 00:57:31;;;;;;;19.25;10.90;;;12.90;99.90;;;;;;5005929;28;20046;-82
2022/11/01 00:59:56;;;;;;;11.07;8.40;;;12.90;99.90;;;;;;5005083;28;20058;-83
2022/11/01 01:02:22;;;;;;;18.20;10.20;;;12.90;99.90;;;;;;5004152;28;20054;-84
2022/11/01 01:04:49;;;;;;;18.10;9.45;;;12.90;99.90;;;;;;5005891;28;20081;-82
2022/11/01 01:07:16;;;;;;;10.98;8.75;;;12.90;99.90;;;;;;5006006;28;20037;-83
2022/11/01 01:09:41;;;;;;;14.95;10.00;;;12.90;99.90;;;;;;5005408;28;20088;-84
2022/11/01 01:12:08;;;;;;;18.98;7.25;;;12.90;99.90;;;;;;5005070;28;20403;-84
2022/11/01 01:14:34;;;;;;;13.65;9.25;;;12.90;99.90;;;;;;5005172;28;20042;-83
2022/11/01 01:16:59;;;;;;;12.63;8.43;;;12.90;99.90;;;;;;5003979;28;20567;-83
2022/11/01 01:19:26;;;;;;;11.65;8.02;;;12.90;99.90;;;;;;5005478;28;20154;-83
2022/11/01 01:21:52;;;;;;;14.18;9.63;;;12.90;99.90;;;;;;5004691;28;20038;-84
2022/11/01 01:24:17;;;;;;;15.18;9.25;;;12.90;99.90;;;;;;5009152;28;20044;-83
2022/11/01 01:26:43;;;;;;;12.20;7.60;;;12.90;99.90;;;;;;5008466;28;20060;-83
2022/11/01 01:29:08;;;;;;;14.85;9.25;;;13.00;99.90;;;;;;5011192;28;20038;-83
2022/11/01 01:31:34;;;;;;;12.70;8.43;;;13.00;99.90;;;;;;5009470;28;20050;-84
2022/11/01 01:34:00;;;;;;;12.68;8.23;;;13.00;99.90;;;;;;5009533;28;20374;-84
2022/11/01 01:36:25;;;;;;;10.80;6.85;;;13.00;99.90;;;;;;5011489;28;20107;-83
2022/11/01 01:38:52;;;;;;;8.48;7.60;;;13.00;99.90;;;;;;5011617;28;20120;-83
2022/11/01 01:44:02;;;;;;;11.18;7.43;;;13.00;99.90;;;;;;5009861;28;20052;-84
2022/11/01 01:46:28;;;;;;;10.07;6.53;;;13.00;99.90;;;;;;5010576;28;20277;-83
2022/11/01 01:48:58;;;;;;;18.75;8.60;;;13.00;99.90;;;;;;5009607;28;20038;-83
2022/11/01 01:51:26;;;;;;;8.73;7.70;;;13.00;99.90;;;;;;5011605;28;20121;-83
2022/11/01 01:53:55;;;;;;;13.43;8.35;;;13.00;99.90;;;;;;5009848;28;20257;-84
2022/11/01 01:56:30;;;;;;;15.90;8.35;;;13.00;99.90;;;;;;5011034;28;20048;-84
2022/11/01 01:59:04;;;;;;;11.82;7.43;;;13.00;99.90;;;;;;5005479;28;20117;-83
2022/11/01 02:01:30;;;;;;;14.23;8.25;;;13.10;99.90;;;;;;4989684;28;20082;-83
2022/11/01 02:03:56;;;;;;;13.25;7.28;;;13.10;99.90;;;;;;4991591;28;20466;-84
2022/11/01 02:06:24;;;;;;;12.00;8.07;;;13.10;99.90;;;;;;4991791;28;20042;-83
2022/11/01 02:08:53;;;;;;;13.75;7.47;;;13.10;99.90;;;;;;5009070;28;20487;-86
2022/11/01 02:11:19;;;;;;;13.98;7.40;;;13.10;99.90;;;;;;5011825;28;20450;-84
2022/11/01 02:13:45;;;;;;;9.98;7.22;;;13.10;99.90;;;;;;5011762;28;20131;-83
2022/11/01 02:16:32;;;;;;;11.48;7.40;;;13.10;99.90;;;;;;4990988;28;20050;-83
2022/11/01 02:19:23;;;;;;;11.10;8.07;;;13.10;99.90;;;;;;4991093;28;20100;-85
2022/11/01 02:22:10;;;;;;;12.90;7.32;;;13.10;99.90;;;;;;4992125;28;20042;-83
2022/11/01 02:25:01;;;;;;;10.43;7.05;;;13.10;99.90;;;;;;4990510;28;20046;-83
2022/11/01 02:27:54;;;;;;;11.45;7.70;;;13.10;99.90;;;;;;4991814;28;20133;-83
2022/11/01 02:30:21;;;;;;;14.07;6.93;;;13.10;99.90;;;;;;4991862;28;20093;-86
2022/11/01 02:33:22;;;;;;;9.82;6.88;;;13.20;99.90;;;;;;4991019;28;20381;-84
2022/11/01 02:35:58;;;;;;;7.50;6.25;;;13.20;99.90;;;;;;4982948;28;20080;-84
2022/11/01 02:38:31;;;;;;;11.70;6.43;;;13.20;99.90;;;;;;5003775;28;20630;-84
2022/11/01 02:41:13;;;;;;;13.88;7.05;;;13.20;99.90;;;;;;4988348;28;20045;-83
2022/11/01 02:43:58;;;;;;;;;;;13.20;99.90;;;;;;4988875;28;20062;-83
2022/11/01 02:49:15;;;;;;;14.55;6.63;;;13.20;99.90;;;;;;4986683;28;20065;-83
2022/11/01 02:51:43;;;;;;;8.07;6.65;;;13.20;99.90;;;;;;4987849;28;20054;-82
2022/11/01 02:54:18;;;;;;;15.68;6.25;;;13.20;99.90;;;;;;4987986;28;20042;-82
2022/11/01 02:56:43;;;;;;;18.65;7.63;;;13.20;99.90;;;;;;4987862;28;20053;-83
2022/11/01 02:59:23;;;;;;;18.90;7.38;;;13.30;99.90;;;;;;4987978;28;20042;-83
2022/11/01 03:02:07;;;;;;;14.10;7.93;;;13.30;99.90;;;;;;4987404;28;20046;-83
2022/11/01 03:04:34;;;;;;;9.02;6.25;;;13.30;99.90;;;;;;4988340;28;20529;-83
2022/11/01 03:07:03;;;;;;;8.50;7.05;;;13.30;99.90;;;;;;4987308;28;20515;-83
2022/11/01 03:09:30;;;;;;;9.50;6.57;;;13.30;99.90;;;;;;4999556;28;20092;-82
2022/11/01 03:12:00;;;;;;;11.27;8.10;;;13.30;99.90;;;;;;5007219;28;20338;-83
2022/11/01 03:14:48;;;;;;;8.60;6.50;;;13.30;99.90;;;;;;5007445;28;20042;-83
2022/11/01 03:17:42;;;;;;;10.07;6.40;;;13.40;99.90;;;;;;5004287;28;20046;-84
2022/11/01 03:20:23;;;;;;;11.63;6.88;;;13.40;99.90;;;;;;5006862;28;20050;-82
2022/11/01 03:22:54;;;;;;;8.13;6.10;;;13.40;99.90;;;;;;5007463;28;20050;-83
2022/11/01 03:25:40;;;;;;;9.23;5.75;;;13.40;99.90;;;;;;4999454;28;20034;-84
2022/11/01 03:28:20;;;;;;;9.32;5.95;;;13.40;99.90;;;;;;4986927;28;20050;-82
2022/11/01 03:30:55;;;;;;;12.55;5.60;;;13.40;99.90;;;;;;4986987;28;20489;-83
2022/11/01 03:33:22;;;;;;;10.52;6.55;;;13.50;99.90;;;;;;4987260;28;20509;-84
2022/11/01 03:35:50;;;;;;;8.70;6.43;;;13.40;99.90;;;;;;4986739;28;20046;-83
2022/11/01 03:38:20;;;;;;;8.57;6.38;;;13.50;99.90;;;;;;4987447;28;20050;-83
2022/11/01 03:40:52;;;;;;;8.27;6.07;;;13.40;99.90;;;;;;4987835;28;20117;-83
2022/11/01 03:43:19;;;;;;;12.73;7.38;;;13.40;99.90;;;;;;4987817;28;20056;-83
2022/11/01 03:45:46;;;;;;;10.45;6.75;;;13.50;99.90;;;;;;4985299;28;20038;-83
2022/11/01 03:48:11;;;;;;;11.68;6.38;;;13.50;99.90;;;;;;4986265;28;20085;-82
2022/11/01 03:50:39;;;;;;;8.90;6.00;;;13.50;99.90;;;;;;4986963;28;20074;-83
2022/11/01 03:53:05;;;;;;;12.77;5.55;;;13.50;99.90;;;;;;4986725;28;20042;-82
2022/11/01 03:55:30;;;;;;;7.78;6.05;;;13.50;99.90;;;;;;5002187;28;20481;-83
2022/11/01 03:57:58;;;;;;;8.20;5.90;;;13.50;99.90;;;;;;4986586;28;20042;-82
2022/11/01 04:00:42;;;;;;;10.50;5.45;;;13.60;99.90;;;;;;4995089;28;20281;-83
2022/11/01 04:03:09;;;;;;;9.35;5.85;;;13.60;99.90;;;;;;5004657;28;20049;-84
2022/11/01 04:05:36;;;;;;;9.40;6.07;;;13.60;99.90;;;;;;5004984;28;20046;-84
2022/11/01 04:08:02;;;;;;;8.15;5.45;;;13.60;99.90;;;;;;5005916;28;20258;-82
2022/11/01 04:10:28;;;;;;;13.35;6.57;;;13.60;99.90;;;;;;5006483;28;20427;-83
2022/11/01 04:12:55;;;;;;;8.57;4.90;;;13.60;99.90;;;;;;5005996;28;20049;-84
2022/11/01 04:21:12;;;;;;;10.52;5.95;;;13.70;99.90;;;;;;4986414;28;20508;-85
2022/11/01 04:23:37;;;;;;;9.05;6.45;;;13.70;99.90;;;;;;4986509;28;20072;-82
2022/11/01 04:26:04;;;;;;;8.05;5.57;;;13.70;99.90;;;;;;4996511;28;20034;-83
2022/11/01 04:28:30;;;;;;;11.43;7.10;;;13.70;99.90;;;;;;5005779;28;20188;-82
2022/11/01 04:30:56;;;;;;;9.20;5.82;;;13.70;99.90;;;;;;5004989;28;20500;-83
2022/11/01 04:33:22;;;;;;;15.25;6.05;;;13.80;99.90;;;;;;5006076;28;20060;-82
2022/11/01 04:35:47;;;;;;;8.07;5.55;;;13.80;99.90;;;;;;5004761;28;20079;-82
2022/11/01 04:38:13;;;;;;;20.45;6.40;;;13.80;99.90;;;;;;5005483;28;20050;-83
2022/11/01 04:40:40;;;;;;;6.80;5.15;;;13.80;99.90;;;;;;5005860;28;20141;-84
2022/11/01 04:43:06;;;;;;;6.20;4.78;;;13.90;99.90;;;;;;5005239;28;20092;-83
2022/11/01 04:45:32;;;;;;;13.27;7.07;;;13.80;99.90;;;;;;5004993;28;20049;-82
2022/11/01 04:48:12;;;;;;;8.68;5.28;;;13.80;99.90;;;;;;5005218;28;20041;-83
2022/11/01 04:50:38;;;;;;;7.55;5.93;;;13.90;99.90;;;;;;5004449;28;20050;-82
2022/11/01 04:53:05;;;;;;;5.07;4.43;;;13.90;99.90;;;;;;5004718;28;20125;-85
2022/11/01 04:55:30;;;;;;;8.25;4.88;;;13.90;99.90;;;;;;4999764;28;20042;-83
2022/11/01 04:57:56;;;;;;;4.07;3.35;;;14.00;99.90;;;;;;4985405;28;20382;-82
2022/11/01 05:00:22;;;;;;;7.20;2.85;;;13.90;99.90;;;;;;4999671;28;20097;-82
2022/11/01 05:02:48;;;;;;;3.63;2.70;;;14.00;99.90;;;;;;4986285;28;20125;-83
2022/11/01 05:05:14;;;;;;;4.30;2.90;;;14.00;99.90;;;;;;4987962;28;20041;-83
2022/11/01 05:07:39;;;;;;;8.40;2.45;;;14.00;99.90;;;;;;5005842;28;20397;-82
2022/11/01 05:10:06;;;;;;;3.42;2.20;;;14.00;99.90;;;;;;5005011;28;20033;-82
2022/11/01 05:12:32;;;;;;;2.65;2.35;;;14.00;99.90;;;;;;5003866;28;20054;-83
2022/11/01 05:14:58;;;;;;;2.63;1.88;;;14.00;99.90;;;;;;5005058;28;20037;-85
2022/11/01 05:17:23;;;;;;;2.20;1.75;;;13.90;99.90;;;;;;4988727;28;20046;-83
2022/11/01 05:19:49;;;;;;;2.67;1.88;;;13.90;99.90;;;;;;4986121;28;20117;-82
2022/11/01 05:22:16;;;;;;;2.80;2.15;;;13.80;99.90;;;;;;4986620;28;20132;-83
2022/11/01 05:24:42;;;;;;;2.53;2.05;;;13.80;99.90;;;;;;4985264;28;20042;-83
2022/11/01 05:27:08;;;;;;;1.80;1.10;;;13.70;99.90;;;;;;4984186;28;20118;-84
2022/11/01 05:29:33;;;;;;;1.73;1.55;;;13.70;99.90;;;;;;4985830;28;20520;-82
2022/11/01 05:31:59;;;;;;;4.15;2.05;;;13.70;99.90;;;;;;5015832;28;21417;-84
2022/11/01 05:34:25;;;;;;;2.65;1.77;;;13.60;99.90;;;;;;4984462;28;20046;-82
2022/11/01 05:36:50;;;;;;;2.92;1.70;;;13.60;99.90;;;;;;4985044;28;20381;-83
2022/11/01 05:39:16;;;;;;;2.92;1.35;;;13.60;99.90;;;;;;4989810;28;20034;-83
2022/11/01 05:41:41;;;;;;;4.72;1.70;;;13.50;99.90;;;;;;4987552;28;20081;-83
2022/11/01 05:44:07;;;;;;;1.63;1.05;;;13.50;99.90;;;;;;5004701;28;20037;-82
2022/11/01 05:46:33;;;;;;;8.23;1.65;;;13.50;99.90;;;;;;5004215;28;20042;-82
2022/11/01 05:48:58;;;;;;;9.10;1.60;;;13.50;99.90;;;;;;5004644;28;20042;-83
2022/11/01 05:51:24;;;;;;;9.55;0.98;;;13.50;99.90;;;;;;5003569;28;20042;-83
2022/11/01 05:53:50;;;;;;;2.30;1.13;;;13.50;99.90;;;;;;4984967;28;20551;-83
2022/11/01 05:56:16;;;;;;;4.10;1.10;;;13.50;99.90;;;;;;4985823;28;20042;-82
2022/11/01 05:58:42;;;;;;;3.72;1.33;;;13.50;99.90;;;;;;4985478;28;20042;-82
2022/11/01 06:01:08;;;;;;;2.88;1.75;;;13.50;99.90;;;;;;4983863;28;20046;-83
2022/11/01 06:03:35;;;;;;;3.63;1.40;;;13.40;99.90;;;;;;4983871;28;20054;-82
2022/11/01 06:06:01;;;;;;;1.92;0.90;;;13.40;99.90;;;;;;4985124;28;20038;-83
2022/11/01 06:08:27;;;;;;;2.08;1.13;;;13.40;99.90;;;;;;4984976;28;20042;-82
2022/11/01 06:11:01;;;;;;;5.28;2.05;;;13.30;99.90;;;;;;4989827;28;20103;-83
2022/11/01 06:13:27;;;;;;;2.50;1.02;;;13.30;99.90;;;;;;4991630;28;20113;-82
2022/11/01 06:15:58;;;;;;;1.45;1.15;;;13.30;99.90;;;;;;4987042;28;20440;-83
2022/11/01 06:18:23;;;;;;;2.38;1.23;;;13.20;99.90;;;;;;4987550;28;20508;-84
2022/11/01 06:20:49;;;;;;;2.13;1.02;;;13.20;99.90;;;;;;4988933;28;20042;-83
2022/11/01 06:23:14;;;;;;;3.30;2.03;;;13.30;99.90;;;;;;4988764;28;20493;-83
2022/11/01 06:25:40;;;;;;;2.90;1.63;;;13.20;99.90;;;;;;4988241;28;20050;-82
2022/11/01 06:28:05;;;;;;;4.95;1.92;;;13.20;99.90;;;;;;4988289;28;20042;-83
2022/11/01 06:30:31;;;;;;;4.22;2.03;;;13.20;99.90;;;;;;4977652;28;20034;-83
2022/11/01 06:33:16;;;;;;;1.90;1.70;;;13.20;99.90;;;;;;4988203;28;20046;-86
2022/11/01 06:35:42;;;;;;;4.30;2.08;;;13.10;99.90;;;;;;4988103;28;20047;-86
2022/11/01 06:38:08;;;;;;;3.67;1.33;;;13.20;99.90;;;;;;4970366;28;20531;-86
2022/11/01 06:40:35;;;;;;;3.08;1.60;;;13.20;99.90;;;;;;4981207;28;20049;-86
2022/11/01 06:43:02;;;;;;;4.35;1.95;;;13.20;99.90;;;;;;4989757;28;20053;-86
2022/11/01 06:45:29;;;;;;;3.13;1.83;;;13.20;99.90;;;;;;4992454;28;20046;-86
2022/11/01 06:47:54;;;;;;;7.65;2.10;;;13.20;99.90;;;;;;4991501;28;20050;-87
2022/11/01 06:50:21;;;;;;;12.93;2.00;;;13.10;99.90;;;;;;4991787;28;20370;-87
2022/11/01 06:52:47;;;;;;;5.20;2.47;;;13.20;99.90;;;;;;4999928;28;20081;-85
2022/11/01 06:55:18;;;;;;;5.40;2.13;;;13.20;99.90;;;;;;4983027;28;20069;-91
2022/11/01 06:57:52;;;;;;;4.72;1.95;;;13.20;99.90;;;;;;4993118;28;20069;-86
2022/11/01 07:00:18;;;;;;;3.40;1.77;;;13.10;99.90;;;;;;4987541;28;20493;-86
2022/11/01 07:02:44;;;;;;;2.30;1.42;;;13.10;99.90;;;;;;4985542;28;20105;-85
2022/11/01 07:05:12;;;;;;;6.40;2.35;;;13.10;99.90;;;;;;4988341;28;20786;-86
2022/11/01 07:07:38;;;;;;;2.17;1.48;;;13.10;99.90;;;;;;4988486;28;20130;-88
2022/11/01 07:10:04;;;;;;;5.95;1.95;;;13.10;99.90;;;;;;4988048;28;20389;-82
2022/11/01 07:12:29;;;;;;;2.78;2.03;;;13.10;99.90;;;;;;5005043;28;20285;-84
2022/11/01 07:14:55;;;;;;;3.30;2.13;;;13.10;99.90;;;;;;5004841;28;20042;-84
2022/11/01 07:17:21;;;;;;;4.13;1.90;;;13.10;99.90;;;;;;5004401;28;20073;-84
2022/11/01 07:19:46;;;;;;;5.53;2.00;;;13.10;99.90;;;;;;5005796;28;20062;-84
2022/11/01 07:22:13;;;;;;;4.45;1.73;;;13.10;99.90;;;;;;4996973;28;20088;-84
2022/11/01 07:24:38;;;;;;;8.68;3.22;;;13.10;99.90;;;;;;4986781;28;20039;-84
2022/11/01 07:27:04;;;;;;;2.47;1.38;;;13.10;99.90;;;;;;4999747;28;20060;-83
2022/11/01 07:29:29;;;;;;;9.00;2.97;;;13.10;99.90;;;;;;4993736;28;20038;-85
2022/11/01 07:31:55;;;;;;;8.30;2.63;;;13.10;99.90;;;;;;4985711;28;20088;-84
2022/11/01 07:34:20;;;;;;;4.28;2.20;;;13.10;99.90;;;;;;4987466;28;20041;-84
2022/11/01 07:36:46;;;;;;;5.43;1.85;;;13.20;99.90;;;;;;5004868;28;20527;-83
2022/11/01 07:39:12;;;;;;;7.80;2.55;;;13.20;99.90;;;;;;4986919;28;20052;-83
2022/11/01 07:41:37;;;;;;;8.75;2.42;;;13.20;99.90;;;;;;4989235;28;20152;-85
2022/11/01 07:44:03;;;;;;;24.33;2.55;;;13.20;99.90;;;;;;5002579;28;20467;-85
2022/11/01 07:46:30;;;;;;;7.57;2.35;;;13.20;99.90;;;;;;4972115;28;20214;-86
2022/11/01 07:48:59;;;;;;;7.43;2.55;;;13.20;99.90;;;;;;4985515;28;20049;-84
2022/11/01 07:51:24;;;;;;;22.52;4.20;;;13.20;99.90;;;;;;4984507;28;20046;-85
2022/11/01 07:53:50;;;;;;;4.22;2.47;;;13.20;99.90;;;;;;4986163;28;20216;-87
2022/11/01 07:56:20;;;;;;;3.95;2.72;;;13.20;99.90;;;;;;4983152;28;20046;-86
2022/11/01 07:58:46;;;;;;;5.75;2.85;;;13.30;99.90;;;;;;4986449;28;20088;-87
2022/11/01 08:01:11;;;;;;;9.18;2.72;;;13.30;99.90;;;;;;4996008;28;20061;-85
2022/11/01 08:03:38;;;;;;;5.05;2.85;;;13.30;99.90;;;;;;5003340;28;20439;-87
2022/11/01 08:06:03;;;;;;;7.95;2.65;;;13.30;99.90;;;;;;5002352;28;20164;-80
2022/11/01 08:08:29;;;;;;;4.97;2.53;;;13.30;99.90;;;;;;4998996;28;20034;-86
2022/11/01 08:10:55;;;;;;;7.32;2.78;;;13.30;99.90;;;;;;4999845;28;20038;-84
2022/11/01 08:13:23;;;;;;;10.95;4.07;;;13.40;99.90;;;;;;4972899;28;20123;-83
2022/11/01 08:15:51;;;;;;;7.30;2.80;;;13.30;99.90;;;;;;5004971;28;20050;-83
2022/11/01 08:18:20;;;;;;;7.00;2.75;;;13.30;99.90;;;;;;5005165;28;20421;-82
2022/11/01 08:20:45;;;;;;;8.77;2.40;;;13.40;99.90;;;;;;5005938;28;20424;-84
2022/11/01 08:23:12;;;;;;;11.85;3.22;;;13.30;99.90;;;;;;5005359;28;20341;-83
2022/11/01 08:25:38;;;;;;;8.52;2.72;;;13.40;99.90;;;;;;4995385;28;20034;-83
2022/11/01 08:28:06;;;;;;;8.95;3.15;;;13.30;99.90;;;;;;4985377;28;20121;-82
2022/11/01 08:30:32;;;;;;;8.95;3.38;;;13.40;99.90;;;;;;4985163;28;20109;-83
2022/11/01 08:32:59;;;;;;;6.78;2.97;;;13.40;99.90;;;;;;4985527;28;20748;-82
2022/11/01 08:35:25;;;;;;;7.72;3.17;;;13.40;99.90;;;;;;4985834;28;20258;-83
2022/11/01 08:37:51;;;;;;;4.95;2.38;;;13.40;99.90;;;;;;4985302;28;20046;-83
2022/11/01 08:40:17;;;;;;;5.53;2.60;;;13.40;99.90;;;;;;4985867;28;20130;-84
2022/11/01 08:42:43;;;;;;;10.85;3.70;;;13.30;99.90;;;;;;4985458;28;20341;-83
2022/11/01 08:45:10;;;;;;;6.97;3.40;;;13.40;99.90;;;;;;4984336;28;20521;-82
2022/11/01 08:47:37;;;;;;;7.55;3.72;;;13.40;99.90;;;;;;4985573;28;20050;-83
2022/11/01 08:50:03;;;;;;;6.00;3.33;;;13.40;99.90;;;;;;4985141;28;20105;-82
2022/11/01 08:52:29;;;;;;;9.02;3.00;;;13.40;99.90;;;;;;4985206;28;20034;-82
2022/11/01 08:54:55;;;;;;;12.73;4.25;;;13.40;99.90;;;;;;4984902;28;20053;-83
2022/11/01 08:57:20;;;;;;;13.50;2.67;;;13.40;99.90;;;;;;4985340;28;20485;-83
2022/11/01 08:59:46;;;;;;;9.50;3.10;;;13.40;99.90;;;;;;4984861;28;20058;-83
2022/11/01 09:02:14;;;;;;;9.43;3.47;;;13.50;99.90;;;;;;4985220;28;20049;-83
2022/11/01 09:04:41;;;;;;;8.88;2.60;;;13.50;99.90;;;;;;4985426;28;20076;-81
2022/11/01 09:07:06;;;;;;;8.95;2.85;;;13.50;99.90;;;;;;4984851;28;20038;-83
2022/11/01 09:09:32;;;;;;;13.25;4.43;;;13.60;99.90;;;;;;4985263;28;20038;-83
2022/11/01 09:11:58;;;;;;;13.48;3.58;;;13.60;99.90;;;;;;4984827;28;20049;-82
2022/11/01 09:14:25;;;;;;;13.18;3.25;;;13.70;99.90;;;;;;4985390;28;20048;-83
2022/11/01 09:16:51;;;;;;;9.63;3.85;;;13.70;99.90;;;;;;4984233;28;20086;-83
2022/11/01 09:19:17;;;;;;;11.65;3.63;;;13.70;99.90;;;;;;4985825;28;20065;-82
2022/11/01 09:21:43;;;;;;;11.20;2.97;;;13.70;99.90;;;;;;4985455;28;20093;-81
2022/11/01 09:24:13;;;;;;;4.03;2.28;;;13.80;99.90;;;;;;4984991;28;20050;-83
2022/11/01 09:26:39;;;;;;;5.63;3.60;;;13.80;99.90;;;;;;4985376;28;20112;-83
2022/11/01 09:29:05;;;;;;;7.95;4.63;;;13.80;99.90;;;;;;4984741;28;20050;-82
2022/11/01 09:31:32;;;;;;;11.43;4.07;;;13.80;99.90;;;;;;4984065;28;20042;-82
2022/11/01 09:33:59;;;;;;;6.03;2.38;;;13.80;99.90;;;;;;4984810;28;20097;-83
2022/11/01 09:36:26;;;;;;;7.38;2.35;;;13.80;99.90;;;;;;4983861;28;20161;-82
2022/11/01 09:38:53;;;;;;;6.50;3.33;;;13.80;99.90;;;;;;4984669;28;20512;-82
2022/11/01 09:41:21;;;;;;;8.35;3.10;;;13.80;99.90;;;;;;4985300;28;20034;-82
2022/11/01 09:43:48;;;;;;;6.40;2.60;;;13.80;99.90;;;;;;4984157;28;20064;-82
2022/11/01 09:46:19;;;;;;;6.47;2.60;;;13.90;99.90;;;;;;4987195;28;20065;-83
2022/11/01 09:48:45;;;;;;;6.80;2.90;;;13.80;99.90;;;;;;4988126;28;20086;-82
2022/11/01 09:51:18;;;;;;;9.38;3.03;;;13.90;99.90;;;;;;4988408;28;20540;-82
2022/11/01 09:53:45;;;;;;;9.45;4.30;;;13.90;99.90;;;;;;4989274;28;20400;-83
2022/11/01 09:56:17;;;;;;;7.80;3.17;;;13.90;99.90;;;;;;4988346;28;20547;-83
2022/11/01 09:58:57;;;;;;;4.55;3.03;;;13.90;99.90;;;;;;4988683;28;20038;-83
2022/11/01 10:01:39;;;;;;;5.97;3.17;;;13.90;99.90;;;;;;4987501;28;20096;-83
2022/11/01 10:04:10;;;;;;;8.77;2.55;;;13.90;99.90;;;;;;4988603;28;20057;-83
2022/11/01 10:06:42;;;;;;;10.32;4.05;;;13.90;99.90;;;;;;4988941;28;20057;-82
2022/11/01 10:09:31;;;;;;;8.27;3.15;;;13.90;99.90;;;;;;4988359;28;20054;-83
2022/11/01 10:12:22;;;;;;;6.00;3.47;;;14.00;99.90;;;;;;4988289;28;20047;-82
2022/11/01 10:15:15;;;;;;;6.97;3.63;;;14.00;99.90;;;;;;4987839;28;20552;-82
2022/11/01 10:17:48;;;;;;;14.07;3.60;;;14.10;99.90;;;;;;4988298;28;20042;-82
2022/11/01 10:20:14;;;;;;;10.10;3.35;;;14.10;99.90;;;;;;4988498;28;20046;-82
2022/11/01 10:22:46;;;;;;;7.63;2.25;;;14.20;99.90;;;;;;4970568;28;20058;-83
2022/11/01 10:25:20;;;;;;;5.72;2.47;;;14.20;99.90;;;;;;4988267;28;20042;-82
2022/11/01 10:27:56;;;;;;;9.25;2.97;;;14.20;99.90;;;;;;4987464;28;20054;-82
2022/11/01 10:30:22;;;;;;;10.02;3.20;;;14.20;99.90;;;;;;4987133;28;20038;-82
2022/11/01 10:33:15;;;;;;;5.60;2.85;;;14.20;99.90;;;;;;4988315;28;20118;-83
2022/11/01 10:35:44;;;;;;;6.18;4.22;;;14.20;99.90;;;;;;4988242;28;20078;-83
2022/11/01 10:38:34;;;;;;;7.40;2.85;;;14.20;99.90;;;;;;4987655;28;20109;-83
2022/11/01 10:41:20;;;;;;;6.70;2.80;;;14.10;99.90;;;;;;4987318;28;20409;-83
2022/11/01 10:43:50;;;;;;;4.75;2.55;;;14.10;99.90;;;;;;4987779;28;20097;-83
2022/11/01 10:46:21;;;;;;;6.53;2.85;;;14.10;99.90;;;;;;4986890;28;20076;-83
2022/11/01 10:49:17;;;;;;;7.68;2.65;;;14.10;99.90;;;;;;4988341;28;20054;-82
2022/11/01 10:51:44;;;;;;;8.52;3.28;;;14.10;99.90;;;;;;4987004;28;20051;-82
2022/11/01 10:54:19;;;;;;;12.55;3.58;;;14.10;99.90;;;;;;4987305;28;20050;-83
2022/11/01 10:56:49;;;;;;;9.15;2.97;;;14.10;99.90;;;;;;5001538;28;20046;-81
2022/11/01 10:59:21;;;;;;;9.48;2.50;;;14.00;99.90;;;;;;4987467;28;20050;-83
2022/11/01 11:01:48;;;;;;;;;;;14.00;99.90;;;;;;4988163;28;20062;-83
2022/11/01 11:04:16;;;;;;;13.55;3.13;;;14.00;99.90;;;;;;4985870;28;19926;-82
2022/11/01 11:06:42;;;;;;;4.20;2.63;;;14.10;99.90;;;;;;4986346;28;20050;-82
2022/11/01 11:09:28;;;;;;;9.20;2.95;;;14.00;99.90;;;;;;4987039;28;20085;-82
2022/11/01 11:12:02;;;;;;;15.15;2.50;;;14.10;99.90;;;;;;4986902;28;20082;-82
2022/11/01 11:14:31;;;;;;;6.82;3.22;;;14.10;99.90;;;;;;4985007;28;20046;-83
2022/11/01 11:16:58;;;;;;;11.52;4.13;;;14.10;99.90;;;;;;4986685;28;20382;-83
2022/11/01 11:19:37;;;;;;;4.35;2.25;;;14.10;99.90;;;;;;4987273;28;20575;-83
2022/11/01 11:22:07;;;;;;;7.88;2.92;;;14.20;99.90;;;;;;4986037;28;20062;-83
2022/11/01 11:24:35;;;;;;;7.75;3.30;;;14.20;99.90;;;;;;4985765;28;20497;-82
2022/11/01 11:27:03;;;;;;;10.38;3.63;;;14.20;99.90;;;;;;4967158;28;20445;-83
2022/11/01 11:29:47;;;;;;;25.15;3.42;;;14.20;99.90;;;;;;4966395;28;20122;-82
2022/11/01 11:32:29;;;;;;;7.78;2.38;;;14.20;99.90;;;;;;4967464;28;20053;-82
2022/11/01 11:35:04;;;;;;;11.37;2.50;;;14.30;99.90;;;;;;4967202;28;20177;-83
2022/11/01 11:37:33;;;;;;;2.83;1.80;;;14.30;99.90;;;;;;4967337;28;20345;-82
2022/11/01 11:40:13;;;;;;;11.43;3.20;;;14.30;99.90;;;;;;4966164;28;20145;-82
2022/11/01 11:42:39;;;;;;;7.80;3.38;;;14.40;99.90;;;;;;4966105;28;20074;-82
2022/11/01 11:45:18;;;;;;;10.23;2.95;;;14.40;99.90;;;;;;4964614;28;20042;-83
2022/11/01 11:47:46;;;;;;;4.95;2.38;;;14.40;99.90;;;;;;4967384;28;20046;-82
2022/11/01 11:50:27;;;;;;;10.27;3.75;;;14.40;99.90;;;;;;4966810;28;20035;-82
2022/11/01 11:52:57;;;;;;;5.65;2.22;;;14.50;99.90;;;;;;4967098;28;20050;-83
2022/11/01 11:55:40;;;;;;;7.93;2.20;;;14.50;99.90;;;;;;4999970;28;20049;-83
2022/11/01 11:58:20;;;;;;;6.68;2.83;;;14.50;99.90;;;;;;4996716;28;20192;-83
2022/11/01 12:00:50;;;;;;;9.20;2.72;;;14.50;99.90;;;;;;4975474;28;20496;-82
2022/11/01 12:03:20;;;;;;;10.77;3.47;;;14.50;99.90;;;;;;4987864;28;20089;-83
2022/11/01 12:06:05;;;;;;;3.92;2.00;;;14.50;99.90;;;;;;5003573;28;20049;-83
2022/11/01 12:08:45;;;;;;;3.70;2.30;;;14.60;99.90;;;;;;4987187;28;20044;-82
2022/11/01 12:11:12;;;;;;;9.48;2.30;;;14.60;99.90;;;;;;4987555;28;20163;-83
2022/11/01 12:13:41;;;;;;;12.00;3.63;;;14.50;99.90;;;;;;4976563;28;20447;-83
2022/11/01 12:16:21;;;;;;;5.93;2.80;;;14.60;99.90;;;;;;5005328;28;20042;-83
2022/11/01 12:18:55;;;;;;;9.27;2.75;;;14.60;99.90;;;;;;5006871;28;20037;-83
2022/11/01 12:21:25;;;;;;;3.67;2.60;;;14.60;99.90;;;;;;4991265;28;20046;-82
2022/11/01 12:23:58;;;;;;;6.30;3.35;;;14.60;99.90;;;;;;4985081;28;20049;-83
2022/11/01 12:26:26;;;;;;;2.97;1.85;;;14.60;99.90;;;;;;4989470;28;20051;-83
2022/11/01 12:29:11;;;;;;;5.60;2.85;;;14.70;99.90;;;;;;4988943;28;20492;-83
2022/11/01 12:31:41;;;;;;;6.15;2.58;;;14.60;99.90;;;;;;4989231;28;20058;-82
2022/11/01 12:34:22;;;;;;;8.32;3.17;;;14.70;99.90;;;;;;4986465;28;20811;-83
2022/11/01 12:37:00;;;;;;;5.00;2.88;;;14.70;99.90;;;;;;4986974;28;20125;-83
2022/11/01 12:40:00;;;;;;;3.53;1.65;;;14.80;99.90;;;;;;5000261;28;20544;-83
2022/11/01 12:42:39;;;;;;;8.48;3.28;;;14.80;99.90;;;;;;5006719;28;20046;-83
2022/11/01 12:45:19;;;;;;;5.50;2.72;;;14.90;99.90;;;;;;5005350;28;20114;-83
2022/11/01 12:47:51;;;;;;;6.40;2.67;;;14.90;99.90;;;;;;4992506;28;20058;-82
2022/11/01 12:50:23;;;;;;;8.55;3.47;;;14.90;99.90;;;;;;5004481;28;20076;-83
2022/11/01 12:53:09;;;;;;;5.82;2.80;;;15.00;99.90;;;;;;4988046;28;20045;-83
2022/11/01 12:55:40;;;;;;;6.97;2.72;;;14.90;99.90;;;;;;4986752;28;20104;-84
2022/11/01 12:58:21;;;;;;;13.65;2.70;;;14.90;99.90;;;;;;4985693;28;20520;-83
2022/11/01 13:01:05;;;;;;;6.95;2.92;;;14.90;99.90;;;;;;4964186;28;20059;-83
2022/11/01 13:03:55;;;;;;;10.75;2.67;;;14.90;99.90;;;;;;4966202;28;20055;-83
2022/11/01 13:06:38;;;;;;;8.45;2.42;;;14.90;99.90;;;;;;4964962;28;20058;-83
2022/11/01 13:09:09;;;;;;;4.65;2.42;;;14.90;99.90;;;;;;4965752;28;20047;-82